Time;durP1;ratioP1;P1;durP2;ratioP2;P2;SDS_P1;SDS_P2;PMS_P1;PMS_P2;Temp;Humidity;BMP_temperature;BMP_pressure;BME280_temperature;BME280_humidity;BME280_pressure;Samples;Min_cycle;Max_cycle;Signal;HPM_P1;HPM_P2
2023/04/30 00:01:14;;;;;;;42.03;20.38;;;;;;;;;;10153826;23;20030;-93
2023/04/30 00:05:21;;;;;;;44.40;21.38;;;;;;;;;;10154918;23;20062;-94
2023/04/30 00:09:26;;;;;;;41.10;20.80;;;;;;;;;;10134317;23;20081;-93
2023/04/30 00:13:30;;;;;;;44.78;20.65;;;;;;;;;;10116843;23;20026;-94
2023/04/30 00:17:36;;;;;;;46.65;21.65;;;;;;;;;;10116754;23;20171;-94
2023/04/30 00:21:41;;;;;;;41.63;21.00;;;;;;;;;;10116982;23;20530;-94
2023/04/30 00:25:47;;;;;;;49.60;22.25;;;;;;;;;;10116248;23;20029;-93
2023/04/30 00:29:53;;;;;;;49.10;21.83;;;;;;;;;;10116327;23;20339;-94
2023/04/30 00:33:59;;;;;;;44.70;22.02;;;;;;;;;;10115284;23;20026;-93
2023/04/30 00:38:05;;;;;;;44.78;21.95;;;;;;;;;;10114894;23;20029;-93
2023/04/30 00:42:11;;;;;;;39.28;19.85;;;;;;;;;;10114660;23;20486;-92
2023/04/30 00:46:15;;;;;;;39.80;21.30;;;;;;;;;;10149199;23;20343;-92
2023/04/30 03:00:39;;;;;;;30.98;18.77;;;;;;;;;;10152135;23;20265;-93
2023/04/30 03:04:42;;;;;;;28.92;17.35;;;;;;;;;;10149845;23;20021;-92
2023/04/30 03:08:45;;;;;;;32.80;19.25;;;;;;;;;;10146629;23;20077;-94
2023/04/30 03:12:48;;;;;;;33.88;19.50;;;;;;;;;;10144693;23;20028;-93
2023/04/30 03:16:52;;;;;;;33.33;18.88;;;;;;;;;;10144913;23;20024;-92
2023/04/30 03:20:56;;;;;;;35.80;18.80;;;;;;;;;;10142553;23;20049;-92
2023/04/30 03:24:59;;;;;;;35.35;20.45;;;;;;;;;;10144176;23;20026;-94
2023/04/30 03:29:02;;;;;;;38.80;21.88;;;;;;;;;;10146857;23;20108;-92
2023/04/30 03:33:06;;;;;;;36.03;20.75;;;;;;;;;;10142434;23;20030;-94
2023/04/30 03:37:09;;;;;;;36.00;20.35;;;;;;;;;;10143204;23;20442;-94
2023/04/30 03:41:13;;;;;;;31.38;17.08;;;;;;;;;;10143336;23;20018;-93
2023/04/30 03:45:16;;;;;;;25.85;13.80;;;;;;;;;;10144906;23;20018;-93
2023/04/30 03:49:21;;;;;;;22.88;12.95;;;;;;;;;;10145169;23;20018;-94
2023/04/30 03:53:26;;;;;;;16.88;10.05;;;;;;;;;;10143005;23;20026;-93
2023/04/30 03:57:29;;;;;;;11.95;6.82;;;;;;;;;;10145507;23;20022;-94
2023/04/30 04:01:32;;;;;;;15.20;9.60;;;;;;;;;;10143886;23;20025;-93
2023/04/30 04:05:36;;;;;;;13.88;9.20;;;;;;;;;;10144234;23;20046;-95
2023/04/30 04:09:41;;;;;;;9.30;5.82;;;;;;;;;;10144366;23;20073;-95
2023/04/30 04:13:43;;;;;;;9.80;7.40;;;;;;;;;;10143927;23;20101;-93
2023/04/30 04:17:47;;;;;;;16.58;10.60;;;;;;;;;;10142491;23;20025;-92
2023/04/30 04:21:51;;;;;;;18.92;11.75;;;;;;;;;;10141892;23;20054;-94
2023/04/30 04:25:56;;;;;;;20.70;12.63;;;;;;;;;;10143582;23;20176;-95
2023/04/30 04:30:02;;;;;;;23.65;13.63;;;;;;;;;;10094456;23;20069;-94
2023/04/30 04:34:06;;;;;;;20.30;11.50;;;;;;;;;;10094024;23;20432;-94
2023/04/30 04:38:11;;;;;;;27.63;16.45;;;;;;;;;;10095628;23;20454;-94
2023/04/30 04:42:15;;;;;;;27.27;15.93;;;;;;;;;;10095070;23;20029;-95
2023/04/30 04:46:19;;;;;;;28.48;15.80;;;;;;;;;;10096443;23;20038;-94
2023/04/30 04:50:40;;;;;;;35.03;17.00;;;;;;;;;;10100652;23;20030;-93
2023/04/30 04:54:59;;;;;;;34.58;17.95;;;;;;;;;;10099363;23;20441;-94
2023/04/30 04:59:05;;;;;;;36.70;19.10;;;;;;;;;;10098490;23;20443;-93
2023/04/30 05:03:09;;;;;;;35.80;17.98;;;;;;;;;;10099821;23;20029;-92
2023/04/30 05:07:12;;;;;;;32.63;17.98;;;;;;;;;;10100205;23;20032;-94
2023/04/30 05:11:17;;;;;;;34.60;18.40;;;;;;;;;;10100133;23;20105;-92
2023/04/30 05:15:20;;;;;;;32.33;19.42;;;;;;;;;;10096723;23;20027;-94
2023/04/30 05:19:23;;;;;;;35.30;18.50;;;;;;;;;;10096966;23;20051;-93
2023/04/30 05:23:27;;;;;;;36.80;19.92;;;;;;;;;;10070829;23;20142;-92
2023/04/30 05:27:31;;;;;;;34.20;19.80;;;;;;;;;;10097322;23;20023;-93
2023/04/30 05:31:35;;;;;;;29.08;14.70;;;;;;;;;;10102028;23;20027;-94
2023/04/30 05:35:38;;;;;;;30.50;16.13;;;;;;;;;;10101340;23;20466;-94
2023/04/30 05:39:42;;;;;;;23.90;14.10;;;;;;;;;;10104206;23;20037;-94
2023/04/30 05:43:47;;;;;;;30.98;16.42;;;;;;;;;;10106878;23;20359;-93
2023/04/30 05:47:50;;;;;;;29.55;16.70;;;;;;;;;;10101481;23;20070;-94
2023/04/30 05:51:54;;;;;;;28.05;16.38;;;;;;;;;;10101455;23;20392;-94
2023/04/30 05:55:57;;;;;;;36.03;18.42;;;;;;;;;;10102681;23;20073;-95
2023/04/30 06:00:05;;;;;;;31.48;16.00;;;;;;;;;;10098536;23;20034;-96
2023/04/30 06:04:08;;;;;;;28.30;17.20;;;;;;;;;;10099360;23;20023;-89
2023/04/30 06:08:11;;;;;;;24.20;14.80;;;;;;;;;;10095243;23;20117;-92
2023/04/30 06:12:17;;;;;;;31.77;16.05;;;;;;;;;;10094884;23;20105;-90
2023/04/30 06:16:22;;;;;;;28.13;15.35;;;;;;;;;;10110971;23;20018;-93
2023/04/30 06:20:26;;;;;;;33.70;17.88;;;;;;;;;;10095051;23;20101;-92
2023/04/30 06:24:32;;;;;;;33.13;17.67;;;;;;;;;;10093952;23;20042;-91
2023/04/30 06:28:36;;;;;;;32.88;15.75;;;;;;;;;;10095205;23;20053;-92
2023/04/30 06:32:41;;;;;;;31.33;16.30;;;;;;;;;;10101026;23;20045;-94
2023/04/30 06:36:45;;;;;;;28.17;16.35;;;;;;;;;;10096666;23;20057;-93
2023/04/30 06:40:48;;;;;;;28.90;15.77;;;;;;;;;;10096722;23;20473;-91
2023/04/30 06:44:51;;;;;;;28.00;13.77;;;;;;;;;;10093979;23;20530;-91
2023/04/30 06:48:55;;;;;;;24.98;14.27;;;;;;;;;;10081805;23;20134;-89
2023/04/30 06:52:58;;;;;;;27.58;13.18;;;;;;;;;;10086123;23;20029;-90
2023/04/30 06:57:02;;;;;;;20.67;12.80;;;;;;;;;;10085773;23;20026;-90
2023/04/30 07:01:05;;;;;;;23.48;12.77;;;;;;;;;;10085259;23;20026;-88
2023/04/30 07:05:11;;;;;;;23.90;13.43;;;;;;;;;;10084133;23;20101;-89
2023/04/30 07:09:15;;;;;;;19.95;12.27;;;;;;;;;;10100938;23;20025;-89
2023/04/30 07:13:18;;;;;;;22.85;12.95;;;;;;;;;;10087966;23;20019;-91
2023/04/30 07:17:24;;;;;;;24.85;14.77;;;;;;;;;;10086348;23;20396;-90
2023/04/30 07:21:31;;;;;;;19.77;12.48;;;;;;;;;;10101062;23;20022;-89
2023/04/30 07:25:35;;;;;;;17.63;11.50;;;;;;;;;;10101858;23;20022;-90
2023/04/30 07:29:38;;;;;;;18.95;11.98;;;;;;;;;;10084348;23;20335;-91
2023/04/30 07:33:41;;;;;;;18.70;12.57;;;;;;;;;;10085513;23;20327;-91
2023/04/30 07:37:46;;;;;;;20.58;12.20;;;;;;;;;;10085548;23;20026;-89
2023/04/30 07:41:49;;;;;;;16.20;10.57;;;;;;;;;;10084596;23;20026;-89
2023/04/30 07:45:53;;;;;;;17.52;10.55;;;;;;;;;;10086304;23;20062;-89
2023/04/30 07:49:56;;;;;;;16.40;9.38;;;;;;;;;;10086167;23;20110;-90
2023/04/30 07:54:00;;;;;;;14.38;8.32;;;;;;;;;;10090722;23;20022;-89
2023/04/30 07:58:04;;;;;;;12.10;6.75;;;;;;;;;;10087282;23;20023;-89
2023/04/30 08:02:11;;;;;;;11.10;7.18;;;;;;;;;;10085044;23;20022;-89
2023/04/30 08:06:14;;;;;;;10.38;6.22;;;;;;;;;;10101546;23;20018;-89
2023/04/30 08:10:21;;;;;;;9.45;5.70;;;;;;;;;;10085476;23;20125;-89
2023/04/30 08:14:25;;;;;;;8.98;5.43;;;;;;;;;;10059308;23;20485;-89
2023/04/30 08:18:28;;;;;;;10.98;5.55;;;;;;;;;;10085039;23;20354;-90
2023/04/30 08:22:31;;;;;;;9.25;4.30;;;;;;;;;;10086118;23;20512;-89
2023/04/30 08:26:40;;;;;;;6.80;4.18;;;;;;;;;;10087671;23;20044;-89
2023/04/30 08:30:43;;;;;;;6.75;4.00;;;;;;;;;;10063225;23;20034;-90
2023/04/30 08:34:48;;;;;;;7.78;4.05;;;;;;;;;;10088386;23;20029;-90
2023/04/30 08:38:51;;;;;;;6.22;3.60;;;;;;;;;;10088649;23;20023;-90
2023/04/30 08:43:05;;;;;;;6.25;3.38;;;;;;;;;;10088062;23;20066;-90
2023/04/30 08:47:09;;;;;;;7.75;4.13;;;;;;;;;;10103925;23;20074;-90
2023/04/30 08:51:12;;;;;;;7.32;3.53;;;;;;;;;;10062423;23;20057;-91
2023/04/30 08:55:16;;;;;;;6.00;3.22;;;;;;;;;;10087248;23;20023;-91
2023/04/30 08:59:20;;;;;;;9.50;3.25;;;;;;;;;;10062062;23;20033;-89
2023/04/30 09:03:23;;;;;;;6.22;3.20;;;;;;;;;;10087352;23;20030;-89
2023/04/30 09:07:28;;;;;;;11.35;3.35;;;;;;;;;;10087168;23;20049;-89
2023/04/30 09:11:31;;;;;;;8.70;3.72;;;;;;;;;;10086360;23;20019;-89
2023/04/30 09:15:40;;;;;;;7.38;2.70;;;;;;;;;;10085330;23;20477;-90
2023/04/30 09:19:43;;;;;;;7.40;2.83;;;;;;;;;;10101570;23;20105;-90
2023/04/30 09:23:56;;;;;;;6.68;3.28;;;;;;;;;;10086939;23;20023;-89
2023/04/30 09:28:08;;;;;;;5.28;2.90;;;;;;;;;;10086263;23;20022;-90
2023/04/30 09:32:13;;;;;;;5.78;2.72;;;;;;;;;;10106208;23;20042;-90
2023/04/30 09:36:16;;;;;;;6.03;2.67;;;;;;;;;;10089867;23;20015;-93
2023/04/30 09:40:20;;;;;;;6.30;2.95;;;;;;;;;;10087499;23;20108;-92
2023/04/30 09:44:30;;;;;;;6.13;2.70;;;;;;;;;;10088875;23;20030;-89
2023/04/30 09:48:35;;;;;;;5.37;2.70;;;;;;;;;;10085951;23;20022;-86
2023/04/30 09:52:38;;;;;;;4.28;2.33;;;;;;;;;;10087144;23;20050;-86
2023/04/30 09:56:41;;;;;;;9.85;2.90;;;;;;;;;;10087512;23;20451;-86
2023/04/30 10:00:47;;;;;;;4.93;2.55;;;;;;;;;;10092594;23;20030;-88
2023/04/30 10:04:59;;;;;;;3.95;2.17;;;;;;;;;;10066581;23;20106;-89
2023/04/30 10:09:04;;;;;;;5.40;2.63;;;;;;;;;;10106810;23;20022;-86
2023/04/30 10:13:15;;;;;;;9.48;2.67;;;;;;;;;;10107590;23;20037;-86
2023/04/30 10:17:20;;;;;;;5.00;2.15;;;;;;;;;;10067448;23;20041;-86
2023/04/30 10:21:27;;;;;;;4.32;1.48;;;;;;;;;;10092108;23;20022;-87
2023/04/30 10:25:30;;;;;;;6.10;2.40;;;;;;;;;;10105443;23;20053;-86
2023/04/30 10:29:34;;;;;;;3.63;1.77;;;;;;;;;;10092573;23;20026;-88
2023/04/30 10:33:48;;;;;;;7.68;2.40;;;;;;;;;;10090960;23;20041;-86
2023/04/30 10:38:11;;;;;;;5.60;2.35;;;;;;;;;;10106685;23;20101;-87
2023/04/30 10:42:14;;;;;;;3.63;2.00;;;;;;;;;;10108152;23;20416;-87
2023/04/30 10:46:23;;;;;;;7.35;2.47;;;;;;;;;;10091551;23;20355;-87
2023/04/30 10:50:26;;;;;;;5.20;2.45;;;;;;;;;;10108065;23;20022;-86
2023/04/30 10:54:32;;;;;;;5.60;2.30;;;;;;;;;;10091563;23;20023;-86
2023/04/30 10:58:37;;;;;;;7.28;2.80;;;;;;;;;;10107561;23;20026;-86
2023/04/30 11:02:42;;;;;;;5.50;2.10;;;;;;;;;;10094366;23;20022;-88
2023/04/30 11:07:02;;;;;;;6.03;2.53;;;;;;;;;;10107841;23;20034;-87
2023/04/30 11:11:09;;;;;;;5.20;2.10;;;;;;;;;;10107484;23;20022;-88
2023/04/30 11:15:17;;;;;;;6.50;2.38;;;;;;;;;;10107709;23;20074;-88
2023/04/30 11:19:23;;;;;;;6.07;2.28;;;;;;;;;;10107743;23;20045;-86
2023/04/30 11:23:27;;;;;;;6.25;2.53;;;;;;;;;;10107533;23;20030;-86
2023/04/30 11:27:33;;;;;;;6.65;2.60;;;;;;;;;;10091574;23;20101;-86
2023/04/30 11:31:36;;;;;;;6.75;2.40;;;;;;;;;;10108383;23;20343;-88
2023/04/30 11:35:42;;;;;;;5.97;1.85;;;;;;;;;;10092143;23;20037;-86
2023/04/30 11:39:46;;;;;;;6.10;2.50;;;;;;;;;;10106925;23;20045;-86
2023/04/30 11:43:51;;;;;;;2.00;1.50;;;;;;;;;;10090769;23;20073;-87
2023/04/30 11:47:55;;;;;;;7.43;2.35;;;;;;;;;;10090709;23;20073;-86
2023/04/30 11:51:58;;;;;;;6.35;2.47;;;;;;;;;;10090840;23;20018;-86
2023/04/30 11:56:05;;;;;;;7.28;2.33;;;;;;;;;;10090373;23;20050;-87
2023/04/30 12:00:14;;;;;;;4.80;1.98;;;;;;;;;;10090760;23;20033;-87
2023/04/30 12:04:18;;;;;;;5.32;2.20;;;;;;;;;;10109862;23;20026;-87
2023/04/30 12:08:23;;;;;;;4.82;2.03;;;;;;;;;;10084558;23;20027;-87
2023/04/30 12:12:29;;;;;;;3.20;1.88;;;;;;;;;;10090587;23;20043;-86
2023/04/30 12:16:43;;;;;;;6.05;2.35;;;;;;;;;;10090746;23;20023;-86
2023/04/30 12:20:46;;;;;;;5.40;1.90;;;;;;;;;;10107000;23;20049;-86
2023/04/30 12:24:49;;;;;;;6.22;2.60;;;;;;;;;;10091672;23;20435;-85
2023/04/30 12:28:52;;;;;;;4.20;1.90;;;;;;;;;;10091674;23;20025;-86
2023/04/30 12:33:02;;;;;;;3.63;1.70;;;;;;;;;;10090963;23;20021;-86
2023/04/30 12:37:06;;;;;;;4.43;1.60;;;;;;;;;;10107105;23;20439;-86
2023/04/30 12:41:14;;;;;;;3.03;1.45;;;;;;;;;;10090676;23;20049;-86
2023/04/30 12:45:49;;;;;;;4.00;1.60;;;;;;;;;;10106792;23;20024;-85
2023/04/30 12:49:55;;;;;;;4.38;1.90;;;;;;;;;;10089402;23;20503;-87
2023/04/30 12:53:58;;;;;;;4.78;1.92;;;;;;;;;;10106607;23;20025;-86
2023/04/30 12:58:06;;;;;;;3.88;1.80;;;;;;;;;;10090519;23;20093;-89
2023/04/30 13:02:10;;;;;;;2.53;1.40;;;;;;;;;;10090195;23;20128;-87
2023/04/30 13:06:14;;;;;;;2.72;1.65;;;;;;;;;;10090447;23;20463;-87
2023/04/30 13:10:18;;;;;;;8.70;2.17;;;;;;;;;;10093240;23;20042;-88
2023/04/30 13:14:21;;;;;;;3.28;1.70;;;;;;;;;;10093647;23;20023;-88
2023/04/30 13:18:23;;;;;;;3.60;1.80;;;;;;;;;;10093606;23;20105;-86
2023/04/30 13:22:28;;;;;;;3.85;1.92;;;;;;;;;;10093513;23;20022;-85
2023/04/30 13:26:31;;;;;;;5.10;1.90;;;;;;;;;;10092914;23;20037;-85
2023/04/30 13:30:34;;;;;;;6.10;2.03;;;;;;;;;;10093535;23;20026;-85
2023/04/30 13:34:39;;;;;;;4.40;2.10;;;;;;;;;;10093170;23;20510;-86
2023/04/30 13:38:43;;;;;;;3.75;1.85;;;;;;;;;;10092455;23;20340;-85
2023/04/30 13:42:48;;;;;;;4.68;1.70;;;;;;;;;;10092625;23;20436;-85
2023/04/30 13:46:51;;;;;;;4.47;1.90;;;;;;;;;;10092744;23;20022;-86
2023/04/30 13:50:54;;;;;;;4.28;2.05;;;;;;;;;;10091166;23;20022;-85
2023/04/30 13:54:59;;;;;;;8.40;2.45;;;;;;;;;;10092356;23;20101;-87
2023/04/30 13:59:02;;;;;;;4.40;2.13;;;;;;;;;;10090863;23;20026;-87
2023/04/30 14:03:08;;;;;;;4.22;1.80;;;;;;;;;;10092718;23;20018;-87
2023/04/30 14:07:11;;;;;;;5.18;2.38;;;;;;;;;;10089778;23;20026;-88
2023/04/30 14:11:16;;;;;;;3.60;1.80;;;;;;;;;;10089681;23;20042;-88
2023/04/30 14:15:19;;;;;;;5.88;2.50;;;;;;;;;;10091046;23;20037;-88
2023/04/30 14:19:23;;;;;;;6.28;3.17;;;;;;;;;;10090276;23;20044;-88
2023/04/30 14:23:27;;;;;;;4.22;1.92;;;;;;;;;;10089959;23;20038;-89
2023/04/30 14:27:32;;;;;;;7.60;2.00;;;;;;;;;;10092539;23;20492;-89
2023/04/30 14:31:35;;;;;;;5.25;1.60;;;;;;;;;;10093695;23;20372;-88
2023/04/30 14:35:38;;;;;;;3.63;1.98;;;;;;;;;;10091007;23;20025;-88
2023/04/30 14:39:41;;;;;;;4.82;2.45;;;;;;;;;;10091598;23;20026;-88
2023/04/30 14:43:45;;;;;;;3.95;2.10;;;;;;;;;;10092021;23;20058;-90
2023/04/30 14:47:49;;;;;;;4.95;1.90;;;;;;;;;;10091552;23;20503;-89
2023/04/30 14:51:52;;;;;;;5.60;2.20;;;;;;;;;;10090148;23;20110;-90
2023/04/30 14:55:58;;;;;;;6.47;2.03;;;;;;;;;;10065617;23;20018;-89
2023/04/30 15:00:02;;;;;;;4.35;2.10;;;;;;;;;;10090235;23;20347;-89
2023/04/30 15:04:06;;;;;;;4.82;2.13;;;;;;;;;;10107626;23;20019;-89
2023/04/30 15:08:09;;;;;;;4.10;2.03;;;;;;;;;;10089840;23;20430;-89
2023/04/30 15:12:12;;;;;;;7.53;2.20;;;;;;;;;;10062823;23;20022;-88
2023/04/30 15:16:17;;;;;;;3.72;1.90;;;;;;;;;;10090900;23;20081;-88
2023/04/30 15:20:20;;;;;;;5.47;2.22;;;;;;;;;;10091051;23;20041;-89
2023/04/30 15:24:23;;;;;;;5.40;2.25;;;;;;;;;;10091372;23;20022;-87
2023/04/30 15:28:26;;;;;;;1.90;1.58;;;;;;;;;;10090951;23;20018;-87
2023/04/30 15:32:31;;;;;;;5.43;2.42;;;;;;;;;;10091295;23;20018;-87
2023/04/30 15:36:34;;;;;;;8.25;2.42;;;;;;;;;;10091021;23;20022;-86
2023/04/30 15:40:37;;;;;;;8.70;2.20;;;;;;;;;;10089933;23;20026;-85
2023/04/30 15:44:40;;;;;;;6.78;2.58;;;;;;;;;;10087181;23;20154;-87
2023/04/30 15:48:45;;;;;;;5.13;2.50;;;;;;;;;;10081636;23;20022;-85
2023/04/30 15:52:49;;;;;;;5.97;2.03;;;;;;;;;;10083047;23;20113;-88
2023/04/30 15:56:52;;;;;;;6.03;1.75;;;;;;;;;;10083696;23;20053;-87
2023/04/30 16:00:55;;;;;;;3.67;2.00;;;;;;;;;;10084132;23;20105;-87
2023/04/30 16:04:59;;;;;;;4.88;2.10;;;;;;;;;;10084815;23;20060;-88
2023/04/30 16:09:06;;;;;;;5.75;2.45;;;;;;;;;;10089337;23;20041;-86
2023/04/30 16:13:08;;;;;;;7.85;2.30;;;;;;;;;;10062794;23;20023;-86
2023/04/30 16:17:11;;;;;;;4.97;2.20;;;;;;;;;;10090149;23;20026;-88
2023/04/30 16:21:17;;;;;;;5.18;2.35;;;;;;;;;;10090849;23;20097;-86
2023/04/30 16:25:20;;;;;;;4.75;2.05;;;;;;;;;;10106651;23;20104;-86
2023/04/30 16:29:22;;;;;;;6.13;2.45;;;;;;;;;;10065865;23;20027;-89
2023/04/30 16:33:25;;;;;;;4.90;2.08;;;;;;;;;;10090739;23;20112;-87
2023/04/30 16:37:30;;;;;;;3.95;2.47;;;;;;;;;;10091420;23;20101;-87
2023/04/30 16:41:34;;;;;;;6.22;3.03;;;;;;;;;;10109901;23;20018;-88
2023/04/30 16:45:37;;;;;;;5.03;2.30;;;;;;;;;;10090198;23;20459;-86
2023/04/30 16:49:41;;;;;;;5.70;3.40;;;;;;;;;;10085266;23;20057;-88
2023/04/30 16:53:45;;;;;;;7.97;3.78;;;;;;;;;;10086349;23;20450;-87
2023/04/30 16:57:49;;;;;;;9.27;3.00;;;;;;;;;;10086832;23;20050;-89
2023/04/30 17:01:55;;;;;;;4.53;2.60;;;;;;;;;;10086835;23;20036;-86
2023/04/30 17:05:58;;;;;;;5.40;2.30;;;;;;;;;;10101978;23;20029;-88
2023/04/30 17:10:03;;;;;;;6.80;2.47;;;;;;;;;;10085741;23;20053;-89
2023/04/30 17:14:06;;;;;;;7.78;3.03;;;;;;;;;;10102111;23;20026;-86
2023/04/30 17:18:10;;;;;;;9.05;3.22;;;;;;;;;;10086539;23;20037;-90
2023/04/30 17:22:18;;;;;;;11.57;3.80;;;;;;;;;;10086901;23;20057;-86
2023/04/30 17:26:23;;;;;;;9.73;3.83;;;;;;;;;;10088296;23;20462;-87
2023/04/30 17:30:27;;;;;;;11.55;4.38;;;;;;;;;;10103364;23;20098;-89
2023/04/30 17:34:31;;;;;;;9.02;3.83;;;;;;;;;;10087297;23;20025;-86
2023/04/30 17:38:34;;;;;;;8.63;3.90;;;;;;;;;;10088891;23;20026;-88
2023/04/30 17:42:39;;;;;;;13.27;5.10;;;;;;;;;;10085924;23;20455;-85
2023/04/30 17:46:47;;;;;;;11.93;5.00;;;;;;;;;;10060723;23;20030;-88
2023/04/30 17:50:51;;;;;;;13.48;5.18;;;;;;;;;;10105042;23;20026;-90
2023/04/30 17:54:57;;;;;;;14.20;5.63;;;;;;;;;;10063576;23;20023;-89
2023/04/30 17:59:02;;;;;;;14.30;5.65;;;;;;;;;;10083481;23;20451;-90
2023/04/30 18:03:07;;;;;;;14.63;5.03;;;;;;;;;;10094627;23;20355;-89
2023/04/30 18:07:10;;;;;;;13.90;5.32;;;;;;;;;;10088451;23;20355;-89
2023/04/30 18:11:18;;;;;;;13.88;5.57;;;;;;;;;;10091473;23;20033;-90
2023/04/30 18:15:24;;;;;;;14.80;6.25;;;;;;;;;;10092351;23;20062;-87
2023/04/30 18:19:28;;;;;;;18.40;8.50;;;;;;;;;;10108417;23;20026;-86
2023/04/30 18:23:32;;;;;;;20.80;9.13;;;;;;;;;;10092814;23;20022;-86
2023/04/30 18:27:36;;;;;;;13.77;7.88;;;;;;;;;;10093313;23;20022;-84
2023/04/30 18:31:41;;;;;;;19.73;8.73;;;;;;;;;;10093906;23;20029;-86
2023/04/30 18:35:50;;;;;;;15.35;7.03;;;;;;;;;;10108038;23;20022;-85
2023/04/30 18:39:56;;;;;;;19.17;6.45;;;;;;;;;;10107588;23;20790;-86
2023/04/30 18:44:01;;;;;;;16.50;6.90;;;;;;;;;;10108224;23;20050;-90
2023/04/30 18:48:09;;;;;;;12.02;6.35;;;;;;;;;;10092069;23;20052;-89
2023/04/30 18:52:13;;;;;;;16.92;6.60;;;;;;;;;;10107391;23;20324;-93
2023/04/30 18:56:20;;;;;;;17.77;7.25;;;;;;;;;;10079645;23;20088;-91
2023/04/30 19:00:26;;;;;;;17.52;7.78;;;;;;;;;;10091344;23;20095;-89
2023/04/30 19:04:32;;;;;;;23.33;8.85;;;;;;;;;;10091548;23;20458;-88
2023/04/30 19:08:37;;;;;;;17.80;7.82;;;;;;;;;;10106992;23;20077;-87
2023/04/30 19:12:42;;;;;;;18.10;8.00;;;;;;;;;;10090974;23;20105;-86
2023/04/30 19:16:47;;;;;;;15.52;7.90;;;;;;;;;;10106990;23;20029;-91
2023/04/30 19:21:00;;;;;;;17.20;8.05;;;;;;;;;;10108087;23;20026;-88
2023/04/30 19:25:06;;;;;;;18.17;7.13;;;;;;;;;;10108070;23;20022;-90
2023/04/30 19:29:17;;;;;;;17.67;9.18;;;;;;;;;;10107721;23;20093;-90
2023/04/30 19:33:28;;;;;;;35.70;16.15;;;;;;;;;;10106889;23;20026;-90
2023/04/30 19:37:39;;;;;;;19.20;9.00;;;;;;;;;;10107212;23;20320;-90
2023/04/30 19:41:43;;;;;;;16.85;6.75;;;;;;;;;;10108066;23;20038;-90
2023/04/30 19:45:51;;;;;;;15.27;6.10;;;;;;;;;;10091468;23;20018;-91
2023/04/30 19:50:01;;;;;;;18.23;7.10;;;;;;;;;;10066902;23;20026;-88
2023/04/30 19:54:12;;;;;;;14.25;6.95;;;;;;;;;;10107866;23;20619;-89
2023/04/30 19:58:17;;;;;;;20.75;8.35;;;;;;;;;;10108527;23;20391;-89
2023/04/30 20:02:21;;;;;;;21.35;10.90;;;;;;;;;;10091353;23;20022;-89
2023/04/30 20:06:24;;;;;;;16.95;7.75;;;;;;;;;;10091381;23;20029;-88
2023/04/30 20:10:32;;;;;;;26.65;13.30;;;;;;;;;;10091462;23;20018;-90
2023/04/30 20:14:38;;;;;;;28.52;14.23;;;;;;;;;;10090845;23;20443;-89
2023/04/30 20:18:45;;;;;;;19.58;9.43;;;;;;;;;;10109429;23;20049;-89
2023/04/30 20:22:51;;;;;;;19.75;6.13;;;;;;;;;;10074089;23;20030;-90
2023/04/30 20:26:56;;;;;;;18.17;6.82;;;;;;;;;;10099447;23;20018;-89
2023/04/30 20:31:03;;;;;;;12.35;5.35;;;;;;;;;;10110896;23;20023;-90
2023/04/30 20:35:08;;;;;;;10.48;4.90;;;;;;;;;;10110756;23;20343;-89
2023/04/30 20:39:12;;;;;;;13.40;6.00;;;;;;;;;;10093901;23;20451;-87
2023/04/30 20:43:18;;;;;;;9.93;4.55;;;;;;;;;;10069477;23;20057;-88
2023/04/30 20:47:22;;;;;;;13.40;6.10;;;;;;;;;;10094640;23;20026;-89
2023/04/30 20:51:29;;;;;;;9.95;5.72;;;;;;;;;;10110924;23;20019;-89
2023/04/30 20:55:34;;;;;;;11.05;4.20;;;;;;;;;;10093983;23;20022;-88
2023/04/30 20:59:39;;;;;;;12.32;5.22;;;;;;;;;;10093501;23;20430;-88
2023/04/30 21:03:42;;;;;;;13.23;5.75;;;;;;;;;;10110013;23;20022;-88
2023/04/30 21:07:45;;;;;;;22.98;10.73;;;;;;;;;;10094199;23;20022;-90
2023/04/30 21:11:48;;;;;;;11.20;5.50;;;;;;;;;;10094044;23;20026;-88
2023/04/30 21:15:56;;;;;;;10.63;4.80;;;;;;;;;;10093945;23;20329;-89
2023/04/30 21:19:59;;;;;;;15.73;6.53;;;;;;;;;;10110249;23;20018;-90
2023/04/30 21:24:04;;;;;;;8.55;4.13;;;;;;;;;;10093670;23;20065;-90
2023/04/30 21:28:12;;;;;;;6.50;4.15;;;;;;;;;;10109719;23;20069;-89
2023/04/30 21:32:17;;;;;;;9.27;5.43;;;;;;;;;;10093962;23;20073;-89
2023/04/30 21:36:20;;;;;;;17.38;8.02;;;;;;;;;;10094183;23;20022;-90
2023/04/30 21:40:23;;;;;;;13.50;6.03;;;;;;;;;;10093427;23;20026;-87
2023/04/30 21:44:26;;;;;;;11.02;5.72;;;;;;;;;;10093928;23;20027;-89
2023/04/30 21:48:31;;;;;;;10.45;5.38;;;;;;;;;;10093451;23;20029;-90
2023/04/30 21:52:34;;;;;;;9.07;4.32;;;;;;;;;;10093404;23;20022;-91
2023/04/30 21:56:37;;;;;;;10.18;5.35;;;;;;;;;;10093377;23;20090;-88
2023/04/30 22:00:40;;;;;;;8.02;4.57;;;;;;;;;;10092720;23;20341;-89
2023/04/30 22:04:49;;;;;;;11.27;4.63;;;;;;;;;;10093722;23;20045;-89
2023/04/30 22:08:52;;;;;;;11.48;4.88;;;;;;;;;;10109955;23;20018;-88
2023/04/30 22:12:55;;;;;;;10.93;4.38;;;;;;;;;;10093909;23;20343;-90
2023/04/30 22:16:58;;;;;;;8.60;4.45;;;;;;;;;;10100525;23;20475;-89
2023/04/30 22:21:05;;;;;;;14.40;5.15;;;;;;;;;;10094021;23;20023;-89
2023/04/30 22:25:09;;;;;;;9.45;4.50;;;;;;;;;;10093748;23;20023;-89
2023/04/30 22:29:18;;;;;;;10.02;5.05;;;;;;;;;;10110054;23;20049;-89
2023/04/30 22:33:21;;;;;;;10.40;5.30;;;;;;;;;;10094485;23;20076;-90
2023/04/30 22:37:37;;;;;;;14.00;5.03;;;;;;;;;;10093770;23;20755;-88
2023/04/30 22:41:45;;;;;;;10.18;4.72;;;;;;;;;;10109968;23;20022;-89
2023/04/30 22:46:02;;;;;;;12.75;5.57;;;;;;;;;;10090748;23;20049;-88
2023/04/30 22:50:07;;;;;;;9.35;4.18;;;;;;;;;;10092768;23;20077;-89
2023/04/30 22:54:12;;;;;;;17.27;5.72;;;;;;;;;;10092616;23;20026;-88
2023/04/30 22:58:15;;;;;;;14.00;5.75;;;;;;;;;;10067585;23;20098;-89
2023/04/30 23:02:19;;;;;;;12.15;5.20;;;;;;;;;;10091327;23;20085;-89
2023/04/30 23:06:22;;;;;;;10.63;4.75;;;;;;;;;;10090690;23;20018;-90
2023/04/30 23:10:26;;;;;;;14.38;5.47;;;;;;;;;;10092190;23;20018;-89
2023/04/30 23:14:29;;;;;;;15.38;5.50;;;;;;;;;;10092257;23;20046;-90
2023/04/30 23:18:32;;;;;;;10.70;5.65;;;;;;;;;;10092236;23;20018;-91
2023/04/30 23:22:35;;;;;;;12.82;5.63;;;;;;;;;;10092370;23;20399;-89
2023/04/30 23:26:40;;;;;;;12.45;5.88;;;;;;;;;;10092340;23;20400;-88
2023/04/30 23:30:43;;;;;;;14.05;6.50;;;;;;;;;;10092145;23;20080;-90
2023/04/30 23:34:46;;;;;;;10.77;5.43;;;;;;;;;;10065529;23;20026;-91
2023/04/30 23:38:50;;;;;;;14.38;5.35;;;;;;;;;;10092249;23;20042;-90
2023/04/30 23:42:54;;;;;;;9.95;5.45;;;;;;;;;;10091370;23;20018;-90
2023/04/30 23:47:04;;;;;;;14.30;4.97;;;;;;;;;;10088153;23;20022;-89
2023/04/30 23:51:08;;;;;;;13.73;6.18;;;;;;;;;;10105570;23;20025;-90
2023/04/30 23:55:14;;;;;;;14.23;5.65;;;;;;;;;;10090872;23;20041;-90
2023/04/30 23:59:19;;;;;;;15.40;5.50;;;;;;;;;;10090673;23;20082;-88
